Time;durP1;ratioP1;P1;durP2;ratioP2;P2;SDS_P1;SDS_P2;PMS_P1;PMS_P2;Temp;Humidity;BMP_temperature;BMP_pressure;BME280_temperature;BME280_humidity;BME280_pressure;Samples;Min_cycle;Max_cycle;Signal;HPM_P1;HPM_P2
2022/05/25 00:00:25;;;;;;;12.00;10.80;;;;;;;26.60;nan;94368.03;4749725;30;20555;-76
2022/05/25 00:02:53;;;;;;;11.30;10.27;;;;;;;26.64;nan;94371.72;4762974;30;20226;-75
2022/05/25 00:05:19;;;;;;;10.60;9.80;;;;;;;26.71;nan;94368.59;4759600;30;20296;-74
2022/05/25 00:07:45;;;;;;;11.17;10.17;;;;;;;26.76;nan;94367.69;4763672;30;20449;-75
2022/05/25 00:10:11;;;;;;;11.33;10.53;;;;;;;26.73;nan;94360.22;4746234;30;20642;-75
2022/05/25 00:12:38;;;;;;;12.63;11.53;;;;;;;25.92;nan;94364.31;4763357;30;20195;-76
2022/05/25 00:15:06;;;;;;;13.03;11.87;;;;;;;26.52;nan;94368.72;4763821;30;20427;-75
2022/05/25 00:17:31;;;;;;;12.03;11.03;;;;;;;26.67;nan;94360.38;4763258;30;20523;-75
2022/05/25 00:19:59;;;;;;;13.13;11.93;;;;;;;26.57;nan;94368.59;4747428;30;20441;-75
2022/05/25 00:22:26;;;;;;;12.10;11.00;;;;;;;26.62;nan;94368.53;4751075;30;20227;-75
2022/05/25 00:24:55;;;;;;;12.57;11.57;;;;;;;26.59;nan;94373.69;4746091;30;20418;-76
2022/05/25 00:27:21;;;;;;;11.00;10.20;;;;;;;26.23;nan;94364.47;4743714;30;20457;-75
2022/05/25 00:29:46;;;;;;;12.10;11.20;;;;;;;25.86;nan;94366.28;4748697;30;20473;-75
2022/05/25 00:32:12;;;;;;;28.03;13.40;;;;;;;25.95;nan;94368.28;4763453;30;20188;-74
2022/05/25 00:34:37;;;;;;;11.30;10.30;;;;;;;26.17;nan;94360.31;4762136;30;20195;-75
2022/05/25 00:37:03;;;;;;;13.27;11.87;;;;;;;25.96;nan;94367.19;4751614;30;20195;-75
2022/05/25 00:39:29;;;;;;;12.37;11.30;;;;;;;26.18;nan;94361.94;4761480;30;20183;-74
2022/05/25 00:41:55;;;;;;;13.13;12.03;;;;;;;26.27;nan;94364.69;4749627;30;20187;-75
2022/05/25 00:44:21;;;;;;;12.17;11.10;;;;;;;26.19;nan;94368.88;4747235;30;20193;-75
2022/05/25 00:46:47;;;;;;;13.37;12.27;;;;;;;25.76;nan;94366.44;4755935;30;20556;-73
2022/05/25 00:49:20;;;;;;;12.63;11.53;;;;;;;25.89;nan;94362.97;4765349;30;20532;-75
2022/05/25 00:51:54;;;;;;;11.80;10.73;;;;;;;25.80;nan;94369.34;4762184;30;20550;-75
2022/05/25 00:54:40;;;;;;;12.33;11.30;;;;;;;25.79;nan;94368.56;4733609;30;20429;-75
2022/05/25 00:57:09;;;;;;;12.00;11.03;;;;;;;25.87;nan;94370.53;4752569;30;20521;-75
2022/05/25 01:00:04;;;;;;;12.73;11.60;;;;;;;25.67;nan;94369.03;4749245;30;20422;-75
2022/05/25 01:02:33;;;;;;;12.00;10.80;;;;;;;25.56;nan;94366.84;4749241;30;20454;-75
2022/05/25 01:04:59;;;;;;;12.87;11.70;;;;;;;25.26;nan;94367.06;4759623;30;20433;-74
2022/05/25 01:07:49;;;;;;;12.30;11.20;;;;;;;25.48;nan;94377.16;4751040;30;20506;-74
2022/05/25 01:10:37;;;;;;;14.00;12.57;;;;;;;25.55;nan;94384.78;4766535;30;20203;-74
2022/05/25 01:13:27;;;;;;;12.87;11.83;;;;;;;24.99;nan;94378.47;4762655;30;20847;-75
2022/05/25 01:15:55;;;;;;;17.73;16.23;;;;;;;25.39;nan;94378.91;4751548;30;20509;-74
2022/05/25 01:18:27;;;;;;;14.07;12.73;;;;;;;25.44;nan;94383.38;4738251;30;20467;-76
2022/05/25 01:21:03;;;;;;;20.60;15.50;;;;;;;25.68;nan;94380.56;4749126;30;20422;-76
2022/05/25 01:23:37;;;;;;;23.10;21.20;;;;;;;25.38;nan;94390.72;4751110;30;20540;-76
2022/05/25 01:26:33;;;;;;;26.73;24.30;;;;;;;25.51;nan;94392.63;4760195;30;20433;-75
2022/05/25 01:28:59;;;;;;;28.70;26.20;;;;;;;25.35;nan;94388.63;4750587;30;20485;-75
2022/05/25 01:31:30;;;;;;;25.90;23.47;;;;;;;25.22;nan;94390.16;4765980;30;20461;-75
2022/05/25 01:34:06;;;;;;;26.80;24.50;;;;;;;25.36;nan;94384.84;4766668;30;20195;-75
2022/05/25 01:36:41;;;;;;;22.70;20.50;;;;;;;25.32;nan;94386.53;4762260;30;20941;-75
2022/05/25 01:39:12;;;;;;;22.27;20.30;;;;;;;25.19;nan;94388.03;4748140;30;20527;-75
2022/05/25 01:41:52;;;;;;;27.83;22.30;;;;;;;25.24;nan;94387.22;4757565;30;20442;-75
2022/05/25 01:44:23;;;;;;;25.33;22.87;;;;;;;25.39;nan;94395.00;4756428;30;20521;-75
2022/05/25 01:47:01;;;;;;;27.20;24.80;;;;;;;25.51;nan;94392.63;4766109;30;20471;-75
2022/05/25 01:49:38;;;;;;;26.33;23.97;;;;;;;25.57;nan;94387.19;4760793;30;20473;-75
2022/05/25 01:52:08;;;;;;;30.20;27.00;;;;;;;25.46;nan;94391.91;4748255;30;20525;-76
2022/05/25 01:54:38;;;;;;;29.93;27.27;;;;;;;25.59;nan;94393.03;4748271;30;20434;-76
2022/05/25 01:57:11;;;;;;;32.97;29.90;;;;;;;25.78;nan;94396.47;4747966;30;20434;-75
2022/05/25 01:59:36;;;;;;;48.80;42.53;;;;;;;25.32;nan;94405.28;4759388;30;20529;-76
2022/05/25 02:04:51;;;;;;;50.70;45.30;;;;;;;25.17;nan;94410.88;4748233;30;20192;-75
2022/05/25 02:07:47;;;;;;;56.27;44.50;;;;;;;25.13;nan;94414.09;4733224;30;20451;-75
2022/05/25 02:10:24;;;;;;;42.17;37.47;;;;;;;25.17;nan;94411.66;4755321;30;20559;-75
2022/05/25 02:13:06;;;;;;;40.83;36.57;;;;;;;25.28;nan;94410.44;4748191;30;20438;-75
2022/05/25 02:15:55;;;;;;;40.60;36.37;;;;;;;25.43;nan;94419.31;4752704;30;20418;-75
2022/05/25 02:18:32;;;;;;;42.10;36.50;;;;;;;25.45;nan;94420.59;4748197;30;20465;-75
2022/05/25 02:21:26;;;;;;;31.23;27.97;;;;;;;24.88;nan;94417.19;4747683;30;20418;-75
2022/05/25 02:24:00;;;;;;;30.00;26.40;;;;;;;25.05;nan;94427.38;4753598;30;21048;-75
2022/05/25 02:26:35;;;;;;;27.57;24.33;;;;;;;24.70;nan;94424.13;4765735;30;20448;-74
2022/05/25 02:29:26;;;;;;;24.53;21.93;;;;;;;25.03;nan;94430.34;4748521;30;20520;-74
2022/05/25 02:32:12;;;;;;;23.70;21.47;;;;;;;25.28;nan;94428.41;4741892;30;20530;-75
2022/05/25 02:34:42;;;;;;;25.67;21.33;;;;;;;25.02;nan;94441.34;4748756;30;20631;-76
2022/05/25 02:37:09;;;;;;;25.87;21.70;;;;;;;25.14;nan;94437.16;4749144;30;20461;-75
2022/05/25 02:39:34;;;;;;;23.97;21.53;;;;;;;25.25;nan;94437.00;4747432;30;20454;-75
2022/05/25 02:42:00;;;;;;;20.63;18.80;;;;;;;25.25;nan;94437.00;4758411;30;20429;-76
2022/05/25 02:44:25;;;;;;;21.93;19.90;;;;;;;25.37;nan;94440.03;4765434;30;20317;-75
2022/05/25 02:46:51;;;;;;;23.77;21.20;;;;;;;25.50;nan;94436.59;4749697;30;20196;-75
2022/05/25 02:49:17;;;;;;;23.10;20.70;;;;;;;25.37;nan;94445.41;4747272;30;20212;-76
2022/05/25 02:51:43;;;;;;;22.33;20.33;;;;;;;25.15;nan;94448.66;4759115;30;20231;-75
2022/05/25 02:54:09;;;;;;;25.57;23.27;;;;;;;25.11;nan;94447.63;4765028;30;20453;-74
2022/05/25 02:56:36;;;;;;;26.00;23.60;;;;;;;24.80;nan;94452.66;4747823;30;20265;-74
2022/05/25 02:59:03;;;;;;;23.77;21.40;;;;;;;24.35;nan;94447.56;4747006;30;20517;-75
2022/05/25 03:01:28;;;;;;;25.17;22.87;;;;;;;24.52;nan;94444.44;4747014;30;20457;-75
2022/05/25 03:03:55;;;;;;;23.27;21.10;;;;;;;25.12;nan;94457.28;4747575;30;20450;-75
2022/05/25 03:06:21;;;;;;;24.67;20.80;;;;;;;24.98;nan;94451.84;4764330;30;20543;-75
2022/05/25 03:08:46;;;;;;;24.83;22.50;;;;;;;25.03;nan;94448.31;4745479;30;20458;-75
2022/05/25 03:11:12;;;;;;;23.50;21.40;;;;;;;25.27;nan;94451.72;4746875;30;20438;-75
2022/05/25 03:13:37;;;;;;;22.80;20.50;;;;;;;25.32;nan;94467.69;4759021;30;20245;-75
2022/05/25 03:16:07;;;;;;;21.60;19.60;;;;;;;25.31;nan;94463.44;4764708;30;20278;-75
2022/05/25 03:18:33;;;;;;;24.87;22.40;;;;;;;25.48;nan;94462.13;4764856;30;20195;-75
2022/05/25 03:20:58;;;;;;;23.97;21.63;;;;;;;25.48;nan;94470.16;4756441;30;20444;-76
2022/05/25 03:23:24;;;;;;;25.60;22.53;;;;;;;25.57;nan;94472.94;4747167;30;20200;-75
2022/05/25 03:25:49;;;;;;;23.27;20.80;;;;;;;25.55;nan;94467.88;4746557;30;20234;-76
2022/05/25 03:28:15;;;;;;;27.80;21.43;;;;;;;25.47;nan;94479.28;4747262;30;20208;-74
2022/05/25 03:30:43;;;;;;;27.10;23.47;;;;;;;24.77;nan;94478.09;4750317;30;20223;-74
2022/05/25 03:33:09;;;;;;;25.93;23.30;;;;;;;25.28;nan;94485.44;4747423;30;20207;-75
2022/05/25 03:35:34;;;;;;;23.90;21.40;;;;;;;25.46;nan;94491.06;4757704;30;20437;-75
2022/05/25 03:38:01;;;;;;;30.83;27.20;;;;;;;25.44;nan;94498.59;4763402;30;20191;-75
2022/05/25 03:40:27;;;;;;;26.63;24.03;;;;;;;25.40;nan;94487.69;4746201;30;20195;-75
2022/05/25 03:42:53;;;;;;;26.00;23.30;;;;;;;25.09;nan;94492.66;4746791;30;20491;-75
2022/05/25 03:45:19;;;;;;;25.03;22.53;;;;;;;25.62;nan;94500.47;4746381;30;20435;-75
2022/05/25 03:47:45;;;;;;;23.37;21.20;;;;;;;25.37;nan;94495.53;4748823;30;20195;-75
2022/05/25 03:50:11;;;;;;;23.50;20.40;;;;;;;25.37;nan;94507.03;4752431;30;20978;-75
2022/05/25 03:52:38;;;;;;;22.30;20.00;;;;;;;25.52;nan;94512.16;4764112;30;20207;-75
2022/05/25 03:55:04;;;;;;;24.20;21.90;;;;;;;25.69;nan;94524.22;4764095;30;20433;-76
2022/05/25 03:57:30;;;;;;;25.73;22.97;;;;;;;25.84;nan;94518.63;4762830;30;20529;-75
2022/05/25 03:59:56;;;;;;;25.80;23.07;;;;;;;25.75;nan;94525.72;4764116;30;20478;-75
2022/05/25 04:02:22;;;;;;;27.13;24.60;;;;;;;25.61;nan;94519.50;4750324;30;20485;-75
2022/05/25 04:04:47;;;;;;;27.47;22.93;;;;;;;25.89;nan;94518.50;4746259;30;20279;-75
2022/05/25 04:07:13;;;;;;;25.80;22.40;;;;;;;26.03;nan;94531.22;4759619;30;20223;-75
2022/05/25 04:09:38;;;;;;;24.83;22.40;;;;;;;26.12;nan;94521.38;4763153;30;20222;-75
2022/05/25 04:12:04;;;;;;;22.43;19.10;;;;;;;26.06;nan;94520.66;4760896;30;20695;-75
2022/05/25 04:14:30;;;;;;;20.00;18.17;;;;;;;26.18;nan;94527.44;4759102;30;20199;-75
2022/05/25 04:16:55;;;;;;;21.17;19.37;;;;;;;25.79;nan;94524.06;4763549;30;20209;-74
2022/05/25 04:19:20;;;;;;;21.97;19.77;;;;;;;24.90;nan;94522.09;4758399;30;20192;-75
2022/05/25 04:21:46;;;;;;;22.93;20.70;;;;;;;25.10;nan;94516.47;4746059;30;20256;-75
2022/05/25 04:24:12;;;;;;;21.17;19.57;;;;;;;25.41;nan;94513.38;4755140;30;20213;-75
2022/05/25 04:26:39;;;;;;;21.77;19.87;;;;;;;25.56;nan;94523.09;4747662;30;20192;-75
2022/05/25 04:29:05;;;;;;;20.80;19.00;;;;;;;25.73;nan;94511.03;4744248;30;20580;-76
2022/05/25 04:31:30;;;;;;;20.97;19.10;;;;;;;25.96;nan;94509.34;4762054;30;20437;-75
2022/05/25 04:33:56;;;;;;;22.97;19.50;;;;;;;26.05;nan;94513.72;4756768;30;20453;-75
2022/05/25 04:36:22;;;;;;;22.73;20.73;;;;;;;26.19;nan;94521.78;4761044;30;20194;-75
2022/05/25 04:38:47;;;;;;;24.83;22.53;;;;;;;25.36;nan;94526.84;4746033;30;20206;-75
2022/05/25 04:41:13;;;;;;;24.73;21.63;;;;;;;26.22;nan;94526.56;4745279;30;20249;-76
2022/05/25 04:43:38;;;;;;;22.03;20.07;;;;;;;26.55;nan;94529.19;4760232;30;20206;-75
2022/05/25 04:46:10;;;;;;;23.83;21.40;;;;;;;26.39;nan;94530.53;4762543;30;20206;-76
2022/05/25 04:48:36;;;;;;;22.17;19.97;;;;;;;25.57;nan;94524.66;4763097;30;20195;-75
2022/05/25 04:51:01;;;;;;;22.93;20.63;;;;;;;25.98;nan;94528.59;4750238;30;20489;-75
2022/05/25 04:53:27;;;;;;;21.30;19.50;;;;;;;25.83;nan;94535.78;4745938;30;20200;-75
2022/05/25 04:58:40;;;;;;;21.30;19.20;;;;;;;26.62;nan;94518.88;4749026;30;20460;-75
2022/05/25 05:01:08;;;;;;;22.73;20.33;;;;;;;25.79;nan;94517.91;4755982;30;20598;-75
2022/05/25 05:03:34;;;;;;;23.30;21.00;;;;;;;26.52;nan;94521.72;4763186;30;20442;-75
2022/05/25 05:06:00;;;;;;;23.07;20.87;;;;;;;26.92;nan;94522.03;4763249;30;20509;-75
2022/05/25 05:08:26;;;;;;;21.63;19.73;;;;;;;26.21;nan;94533.00;4751100;30;20964;-75
2022/05/25 05:10:53;;;;;;;20.60;19.00;;;;;;;25.94;nan;94522.25;4760755;30;20500;-75
2022/05/25 05:13:19;;;;;;;20.47;18.77;;;;;;;26.49;nan;94528.47;4746685;30;20450;-76
2022/05/25 05:15:48;;;;;;;22.17;20.27;;;;;;;26.07;nan;94526.84;4747603;30;20518;-75
2022/05/25 05:18:15;;;;;;;19.07;17.17;;;;;;;26.02;nan;94537.66;4747736;30;20263;-76
2022/05/25 05:20:40;;;;;;;19.50;17.80;;;;;;;25.72;nan;94542.38;4762724;30;20437;-75
2022/05/25 05:23:06;;;;;;;20.70;18.57;;;;;;;26.54;nan;94551.75;4780615;30;20444;-75
2022/05/25 05:25:32;;;;;;;19.43;17.27;;;;;;;25.82;nan;94547.59;4772128;30;20206;-75
2022/05/25 05:28:08;;;;;;;19.50;17.60;;;;;;;26.70;nan;94544.22;4746774;30;20207;-75
2022/05/25 05:30:38;;;;;;;19.83;18.23;;;;;;;27.20;nan;94540.78;4761990;30;20504;-75
2022/05/25 05:33:03;;;;;;;21.30;19.17;;;;;;;26.39;nan;94557.38;4762731;30;20444;-75
2022/05/25 05:35:30;;;;;;;20.23;18.03;;;;;;;27.29;nan;94551.66;4765020;30;20437;-75
2022/05/25 05:37:57;;;;;;;18.27;16.60;;;;;;;27.06;nan;94556.94;4758325;30;20271;-75
2022/05/25 05:40:22;;;;;;;18.00;16.50;;;;;;;27.92;nan;94558.03;4766141;30;21005;-75
2022/05/25 05:42:50;;;;;;;19.33;16.70;;;;;;;27.94;nan;94564.69;4755803;30;20474;-75
2022/05/25 05:45:23;;;;;;;21.43;17.03;;;;;;;27.93;nan;94573.06;4750213;30;20191;-75
2022/05/25 05:47:53;;;;;;;17.97;16.47;;;;;;;27.88;nan;94570.47;4749557;30;20453;-74
2022/05/25 05:50:21;;;;;;;20.93;17.80;;;;;;;27.77;nan;94567.22;4761297;30;20592;-75
2022/05/25 05:52:49;;;;;;;21.30;16.60;;;;;;;27.46;nan;94566.03;4766202;30;20655;-75
2022/05/25 05:55:16;;;;;;;18.87;17.03;;;;;;;27.36;nan;94562.78;4763661;30;20437;-75
2022/05/25 05:57:42;;;;;;;26.40;18.20;;;;;;;26.87;nan;94565.91;4748377;30;20450;-75
2022/05/25 06:00:09;;;;;;;21.67;19.60;;;;;;;28.27;nan;94577.88;4753168;30;20449;-76
2022/05/25 06:02:34;;;;;;;20.00;17.90;;;;;;;28.65;nan;94572.06;4765614;30;20263;-76
2022/05/25 06:04:59;;;;;;;19.83;17.87;;;;;;;27.70;nan;94574.91;4765456;30;20454;-75
2022/05/25 06:07:25;;;;;;;20.27;18.30;;;;;;;27.67;nan;94568.25;4765736;30;20231;-74
2022/05/25 06:09:50;;;;;;;22.93;18.60;;;;;;;27.13;nan;94569.94;4750828;30;20238;-76
2022/05/25 06:12:16;;;;;;;19.00;17.13;;;;;;;28.41;nan;94569.72;4748001;30;20204;-75
2022/05/25 06:14:42;;;;;;;18.87;17.07;;;;;;;29.20;nan;94576.25;4762956;30;20195;-76
2022/05/25 06:19:52;;;;;;;19.63;17.97;;;;;;;28.97;nan;94578.22;4747663;30;20410;-77
2022/05/25 06:22:20;;;;;;;20.33;16.23;;;;;;;28.60;nan;94573.00;4753768;30;20449;-74
2022/05/25 06:24:48;;;;;;;20.03;18.10;;;;;;;29.57;nan;94574.84;4763175;30;20199;-75
2022/05/25 06:27:14;;;;;;;19.37;17.40;;;;;;;28.84;nan;94579.09;4760327;30;20455;-76
2022/05/25 06:29:43;;;;;;;19.03;16.37;;;;;;;29.71;nan;94579.28;4765400;30;20472;-76
2022/05/25 06:32:10;;;;;;;17.53;15.67;;;;;;;29.58;nan;94581.84;4747590;30;20503;-75
2022/05/25 06:34:38;;;;;;;18.07;16.40;;;;;;;29.75;nan;94578.38;4747162;30;20445;-75
2022/05/25 06:37:04;;;;;;;20.57;17.23;;;;;;;29.16;nan;94580.69;4747617;30;20443;-76
2022/05/25 06:39:34;;;;;;;18.37;16.43;;;;;;;30.13;nan;94582.31;4731175;30;20457;-75
2022/05/25 06:42:00;;;;;;;19.17;17.57;;;;;;;30.19;nan;94589.13;4751820;30;20589;-75
2022/05/25 06:44:25;;;;;;;18.83;16.40;;;;;;;30.90;nan;94585.94;4748222;30;20442;-75
2022/05/25 06:46:51;;;;;;;18.30;16.60;;;;;;;29.45;nan;94573.91;4763025;30;20183;-76
2022/05/25 06:49:17;;;;;;;18.03;16.53;;;;;;;30.52;nan;94588.59;4751735;30;20219;-76
2022/05/25 06:51:43;;;;;;;19.20;17.50;;;;;;;29.52;nan;94595.78;4753219;30;20243;-76
2022/05/25 06:54:09;;;;;;;18.77;17.27;;;;;;;29.73;nan;94583.31;4760627;30;20482;-76
2022/05/25 06:56:35;;;;;;;19.53;17.53;;;;;;;29.83;nan;94584.88;4753468;30;20227;-76
2022/05/25 06:59:00;;;;;;;19.43;17.30;;;;;;;28.53;nan;94580.75;4760147;30;20462;-75
2022/05/25 07:01:27;;;;;;;21.00;19.10;;;;;;;28.69;nan;94588.41;4760440;30;20196;-75
2022/05/25 07:03:53;;;;;;;19.77;17.77;;;;;;;29.51;nan;94586.13;4755935;30;20203;-75
2022/05/25 07:06:20;;;;;;;17.97;16.57;;;;;;;29.88;nan;94597.41;4763344;30;20455;-75
2022/05/25 07:08:46;;;;;;;30.27;19.20;;;;;;;29.64;nan;94592.47;4762030;30;20208;-75
2022/05/25 07:11:12;;;;;;;17.37;15.97;;;;;;;30.13;nan;94596.59;4763668;30;20464;-75
2022/05/25 07:13:39;;;;;;;17.80;15.80;;;;;;;30.83;nan;94601.88;4747168;30;20223;-75
2022/05/25 07:16:06;;;;;;;17.13;15.57;;;;;;;30.60;nan;94609.41;4751503;30;20444;-75
2022/05/25 07:18:32;;;;;;;17.70;15.83;;;;;;;30.45;nan;94605.31;4749976;30;20796;-75
2022/05/25 07:21:21;;;;;;;17.93;16.47;;;;;;;30.89;nan;94600.56;4746470;30;20434;-75
2022/05/25 07:23:49;;;;;;;16.37;15.07;;;;;;;30.78;nan;94602.03;4755510;30;20476;-75
2022/05/25 07:26:16;;;;;;;19.03;17.13;;;;;;;29.97;nan;94600.91;4762698;30;20436;-76
2022/05/25 07:28:42;;;;;;;19.27;17.40;;;;;;;28.18;nan;94612.81;4763823;30;21277;-75
2022/05/25 07:31:21;;;;;;;18.20;16.43;;;;;;;30.22;nan;94599.31;4746472;30;20986;-76
2022/05/25 07:33:53;;;;;;;17.73;15.93;;;;;;;30.88;nan;94598.16;4753095;30;20931;-76
2022/05/25 07:36:19;;;;;;;17.27;15.77;;;;;;;31.48;nan;94596.31;4750916;30;20446;-75
2022/05/25 07:38:49;;;;;;;18.40;14.80;;;;;;;31.71;nan;94591.38;4758111;30;20460;-75
2022/05/25 07:41:17;;;;;;;21.00;15.80;;;;;;;31.26;nan;94592.75;4777726;30;20799;-75
2022/05/25 07:43:44;;;;;;;17.23;15.43;;;;;;;30.44;nan;94595.63;4763312;30;20477;-75
2022/05/25 07:46:10;;;;;;;17.90;16.33;;;;;;;31.64;nan;94591.09;4744835;30;20449;-76
2022/05/25 07:48:36;;;;;;;18.20;15.90;;;;;;;31.31;nan;94583.66;4759522;30;20451;-75
2022/05/25 07:51:03;;;;;;;17.67;16.07;;;;;;;31.33;nan;94576.03;4758633;30;20266;-75
2022/05/25 07:56:15;;;;;;;23.10;14.60;;;;;;;32.70;nan;94579.00;4748300;30;20933;-76
2022/05/25 07:58:41;;;;;;;20.63;14.50;;;;;;;33.27;nan;94582.75;4744897;30;20534;-75
2022/05/25 08:01:13;;;;;;;15.93;14.30;;;;;;;32.67;nan;94582.41;4746010;30;20428;-76
2022/05/25 08:06:24;;;;;;;14.67;13.27;;;;;;;33.41;nan;94587.84;4764161;30;20449;-75
2022/05/25 08:08:51;;;;;;;14.47;12.27;;;;;;;32.67;nan;94585.91;4754990;30;20835;-75
2022/05/25 08:11:20;;;;;;;13.70;12.50;;;;;;;32.30;nan;94585.00;4761062;30;20198;-75
2022/05/25 08:13:52;;;;;;;16.40;12.93;;;;;;;33.16;nan;94589.78;4748368;30;20459;-76
2022/05/25 08:16:18;;;;;;;15.87;12.90;;;;;;;32.52;nan;94588.41;4747350;30;20445;-76
2022/05/25 08:18:43;;;;;;;14.47;13.17;;;;;;;32.90;nan;94587.38;4762014;30;20447;-75
2022/05/25 08:21:09;;;;;;;12.33;11.20;;;;;;;33.20;nan;94580.63;4755404;30;20206;-76
2022/05/25 08:23:35;;;;;;;11.90;10.67;;;;;;;31.72;nan;94571.31;4744568;30;20200;-75
2022/05/25 08:26:01;;;;;;;12.33;11.07;;;;;;;31.01;nan;94564.75;4757099;30;20432;-75
2022/05/25 08:28:27;;;;;;;12.87;10.77;;;;;;;31.86;nan;94571.81;4763659;30;20455;-76
2022/05/25 08:30:52;;;;;;;11.30;10.40;;;;;;;32.60;nan;94576.75;4745698;30;20537;-75
2022/05/25 08:33:20;;;;;;;10.10;9.20;;;;;;;32.65;nan;94592.75;4748520;30;20298;-76
2022/05/25 08:35:46;;;;;;;13.53;9.70;;;;;;;33.84;nan;94594.56;4766902;30;20191;-76
2022/05/25 08:38:12;;;;;;;13.30;11.20;;;;;;;33.66;nan;94596.75;4756825;30;20894;-76
2022/05/25 08:40:38;;;;;;;13.63;9.97;;;;;;;33.99;nan;94591.09;4745639;30;20426;-76
2022/05/25 08:43:12;;;;;;;11.70;10.47;;;;;;;33.60;nan;94590.75;4753797;30;20449;-75
2022/05/25 08:45:41;;;;;;;13.37;12.03;;;;;;;33.02;nan;94593.59;4763398;30;20259;-75
2022/05/25 08:48:09;;;;;;;12.13;11.03;;;;;;;33.54;nan;94592.13;4761190;30;20454;-75
2022/05/25 08:50:36;;;;;;;11.57;10.57;;;;;;;34.61;nan;94604.44;4753756;30;20495;-75
2022/05/25 08:53:03;;;;;;;12.90;11.47;;;;;;;35.20;nan;94616.44;4745736;30;20465;-75
2022/05/25 08:56:03;;;;;;;13.47;12.17;;;;;;;34.95;nan;94599.50;4746919;30;20426;-75
2022/05/25 08:58:49;;;;;;;13.13;11.97;;;;;;;35.41;nan;94591.63;4761399;30;20432;-76
2022/05/25 09:01:25;;;;;;;13.13;11.77;;;;;;;35.56;nan;94593.53;4746209;30;20506;-75
2022/05/25 09:04:08;;;;;;;13.70;11.30;;;;;;;35.56;nan;94588.09;4746117;30;20467;-76
2022/05/25 09:07:05;;;;;;;11.53;10.43;;;;;;;35.86;nan;94589.53;4756441;30;20524;-76
2022/05/25 09:09:46;;;;;;;12.47;11.47;;;;;;;35.35;nan;94587.63;4742878;30;20541;-75
2022/05/25 09:12:29;;;;;;;13.07;11.83;;;;;;;34.24;nan;94582.88;4750809;30;20437;-76
2022/05/25 09:15:20;;;;;;;15.63;12.23;;;;;;;34.45;nan;94584.59;4744527;30;20441;-76
2022/05/25 09:17:58;;;;;;;12.40;11.10;;;;;;;35.22;nan;94594.31;4766190;30;20445;-76
2022/05/25 09:20:30;;;;;;;12.87;11.50;;;;;;;36.34;nan;94601.00;4766097;30;20432;-76
2022/05/25 09:22:57;;;;;;;14.20;13.00;;;;;;;34.85;nan;94603.53;4765837;30;21044;-76
2022/05/25 09:25:24;;;;;;;16.27;11.63;;;;;;;35.28;nan;94601.06;4765895;30;20444;-76
2022/05/25 09:27:56;;;;;;;17.13;12.10;;;;;;;35.41;nan;94602.53;4765991;30;20475;-76
2022/05/25 09:30:22;;;;;;;15.00;12.63;;;;;;;34.42;nan;94599.69;4761326;30;20470;-76
2022/05/25 09:33:06;;;;;;;11.90;10.80;;;;;;;35.63;nan;94606.53;4748706;30;20489;-76
2022/05/25 09:35:38;;;;;;;17.67;11.97;;;;;;;35.32;nan;94599.19;4739956;30;20360;-76
2022/05/25 09:38:13;;;;;;;15.90;12.70;;;;;;;34.76;nan;94600.97;4765898;30;20441;-76
2022/05/25 09:40:49;;;;;;;12.20;11.20;;;;;;;36.33;nan;94591.22;4755124;30;20433;-76
2022/05/25 09:43:20;;;;;;;16.30;12.53;;;;;;;36.69;nan;94602.81;4762982;30;20965;-76
2022/05/25 09:45:51;;;;;;;14.30;11.77;;;;;;;36.77;nan;94593.63;4759837;30;20436;-76
2022/05/25 09:48:17;;;;;;;14.40;11.67;;;;;;;36.78;nan;94588.94;4765740;30;20490;-76
2022/05/25 09:50:46;;;;;;;14.40;12.53;;;;;;;36.42;nan;94582.84;4764036;30;20478;-76
2022/05/25 09:53:19;;;;;;;17.47;12.50;;;;;;;38.11;nan;94575.28;4746720;30;20292;-76
2022/05/25 09:55:47;;;;;;;15.90;11.60;;;;;;;37.94;nan;94579.34;4748382;30;20399;-75
2022/05/25 09:58:36;;;;;;;11.93;10.70;;;;;;;37.12;nan;94574.28;4762142;30;20456;-75
2022/05/25 10:01:23;;;;;;;13.93;12.53;;;;;;;37.54;nan;94563.59;4756687;30;20429;-75
2022/05/25 10:03:50;;;;;;;13.37;10.93;;;;;;;38.70;nan;94561.84;4748467;30;20446;-75
2022/05/25 10:06:52;;;;;;;17.13;12.67;;;;;;;37.97;nan;94558.72;4758699;30;20497;-76
2022/05/25 10:09:27;;;;;;;14.93;12.60;;;;;;;37.64;nan;94557.50;4776036;30;20487;-76
2022/05/25 10:11:56;;;;;;;14.93;12.40;;;;;;;38.62;nan;94550.06;4748281;30;20425;-75
2022/05/25 10:14:27;;;;;;;15.13;13.57;;;;;;;38.14;nan;94558.16;4748640;30;20502;-76
2022/05/25 10:17:05;;;;;;;17.53;12.20;;;;;;;37.81;nan;94561.63;4749807;30;20900;-76
2022/05/25 10:19:33;;;;;;;14.80;10.23;;;;;;;37.44;nan;94554.91;4754340;30;20642;-75
2022/05/25 10:21:59;;;;;;;13.17;10.60;;;;;;;38.29;nan;94556.38;4747084;30;21014;-76
2022/05/25 10:24:40;;;;;;;19.87;12.57;;;;;;;36.92;nan;94556.44;4747384;30;20454;-75
2022/05/25 10:27:22;;;;;;;13.03;11.70;;;;;;;37.81;nan;94561.63;4734928;30;20206;-76
2022/05/25 10:38:30;;;;;;;15.27;10.90;;;;;;;37.11;nan;94542.69;4762281;30;20471;-76
2022/05/25 10:40:58;;;;;;;12.07;10.87;;;;;;;37.74;nan;94545.16;4759789;30;20423;-76
2022/05/25 10:43:29;;;;;;;11.97;10.40;;;;;;;38.69;nan;94532.94;4747988;30;20449;-76
2022/05/25 10:45:57;;;;;;;12.13;10.93;;;;;;;37.77;nan;94523.34;4750582;30;20440;-76
2022/05/25 10:48:57;;;;;;;16.53;11.80;;;;;;;38.02;nan;94526.38;4731642;30;20448;-76
2022/05/25 10:51:36;;;;;;;12.63;10.63;;;;;;;38.40;nan;94518.16;4746636;30;20485;-76
2022/05/25 10:57:10;;;;;;;15.67;9.00;;;;;;;39.03;nan;94524.63;4764900;30;20440;-75
2022/05/25 10:59:57;;;;;;;11.30;10.20;;;;;;;38.49;nan;94507.69;4751146;30;20418;-76
2022/05/25 11:02:41;;;;;;;10.90;9.80;;;;;;;39.08;nan;94513.28;4748964;30;20470;-76
2022/05/25 11:05:09;;;;;;;13.60;8.33;;;;;;;40.12;nan;94502.84;4759054;30;20441;-76
2022/05/25 11:07:37;;;;;;;13.50;8.93;;;;;;;39.89;nan;94494.97;4742573;30;20450;-76
2022/05/25 11:10:17;;;;;;;13.03;9.20;;;;;;;39.92;nan;94491.44;4746999;30;20470;-76
2022/05/25 11:13:01;;;;;;;10.43;8.70;;;;;;;40.37;nan;94504.88;4745061;30;20446;-76
2022/05/25 11:15:35;;;;;;;9.23;6.60;;;;;;;39.12;nan;94496.88;4763660;30;20433;-76
2022/05/25 11:18:22;;;;;;;13.07;8.60;;;;;;;38.40;nan;94490.81;4764630;30;20440;-76
2022/05/25 11:20:48;;;;;;;14.27;7.73;;;;;;;39.58;nan;94496.41;4763979;30;20465;-75
2022/05/25 11:23:27;;;;;;;13.00;8.40;;;;;;;39.36;nan;94493.50;4752265;30;20573;-76
2022/05/25 11:26:02;;;;;;;14.13;7.43;;;;;;;39.91;nan;94494.56;4745775;30;20485;-76
2022/05/25 11:28:49;;;;;;;11.60;6.40;;;;;;;41.35;nan;94485.25;4757939;30;20446;-76
2022/05/25 11:31:43;;;;;;;9.07;6.57;;;;;;;41.08;nan;94490.38;4749139;30;20831;-76
2022/05/25 11:34:17;;;;;;;8.47;5.60;;;;;;;41.64;nan;94482.41;4734881;30;20502;-75
2022/05/25 11:37:17;;;;;;;13.50;6.57;;;;;;;42.64;nan;94483.84;4746960;30;20422;-76
2022/05/25 11:39:59;;;;;;;9.90;6.60;;;;;;;40.60;nan;94468.81;4733321;30;20437;-76
2022/05/25 11:42:39;;;;;;;5.90;5.30;;;;;;;39.40;nan;94477.88;4759888;30;20533;-75
2022/05/25 11:45:23;;;;;;;9.40;5.70;;;;;;;40.29;nan;94481.34;4752508;30;20443;-75
2022/05/25 11:48:12;;;;;;;7.10;3.93;;;;;;;41.89;nan;94476.81;4763080;30;20484;-75
2022/05/25 11:51:12;;;;;;;9.40;3.87;;;;;;;42.43;nan;94471.00;4746879;30;20539;-77
2022/05/25 11:54:10;;;;;;;11.33;4.57;;;;;;;42.57;nan;94455.56;4746191;30;20442;-76
2022/05/25 11:56:58;;;;;;;12.20;3.30;;;;;;;42.85;nan;94462.81;4746398;30;20410;-76
2022/05/25 11:59:58;;;;;;;7.00;3.10;;;;;;;39.97;nan;94455.41;4747155;30;20508;-76
2022/05/25 12:02:48;;;;;;;12.50;4.63;;;;;;;41.80;nan;94456.44;4745961;30;20547;-76
2022/05/25 12:05:16;;;;;;;11.50;3.40;;;;;;;42.29;nan;94457.31;4746208;30;20406;-76
2022/05/25 12:08:21;;;;;;;22.40;5.53;;;;;;;41.80;nan;94454.47;4753924;30;20454;-76
2022/05/25 12:11:06;;;;;;;9.20;2.90;;;;;;;40.76;nan;94451.97;4702799;30;20520;-76
2022/05/25 12:13:44;;;;;;;16.00;4.50;;;;;;;41.03;nan;94443.31;4748948;30;20454;-76
2022/05/25 12:16:21;;;;;;;7.17;3.37;;;;;;;42.89;nan;94442.31;4753316;30;20435;-76
2022/05/25 12:19:12;;;;;;;10.07;3.70;;;;;;;43.15;nan;94440.09;4763486;30;20933;-75